createdAt,value
2022-09-23T00:00:35.072Z,101880.63
2022-09-23T00:03:01.970Z,101881.59
2022-09-23T00:05:30.541Z,101891.94
2022-09-23T00:07:58.925Z,101874.44
2022-09-23T00:10:27.757Z,101887.31
2022-09-23T00:12:55.557Z,101880.28
2022-09-23T00:15:22.490Z,101875.91
2022-09-23T00:17:49.333Z,101883.72
2022-09-23T00:20:16.134Z,101877.53
2022-09-23T00:22:42.968Z,101870.59
2022-09-23T00:25:12.011Z,101866.34
2022-09-23T00:27:39.792Z,101864.13
2022-09-23T00:30:09.576Z,101865.97
2022-09-23T00:32:36.794Z,101859.25
2022-09-23T00:35:06.683Z,101856.00
2022-09-23T00:37:33.445Z,101858.88
2022-09-23T00:40:00.802Z,101857.34
2022-09-23T00:42:29.015Z,101856.38
2022-09-23T00:44:57.445Z,101854.91
2022-09-23T00:47:30.064Z,101857.34
2022-09-23T00:50:03.706Z,101859.88
2022-09-23T00:52:32.255Z,101858.47
2022-09-23T00:55:02.750Z,101853.47
2022-09-23T00:57:32.146Z,101846.59
2022-09-23T00:59:59.488Z,101839.66
2022-09-23T01:02:26.714Z,101839.97
2022-09-23T01:04:54.665Z,101846.19
2022-09-23T01:07:21.940Z,101841.03
2022-09-23T01:09:50.048Z,101837.78
2022-09-23T01:12:33.000Z,101834.47
2022-09-23T01:15:10.931Z,101829.31
2022-09-23T01:17:47.534Z,101830.44
2022-09-23T01:20:38.597Z,101834.16
2022-09-23T01:23:21.928Z,101836.97
2022-09-23T01:26:08.216Z,101830.63
2022-09-23T01:28:58.252Z,101835.44
2022-09-23T01:31:37.116Z,101828.88
2022-09-23T01:34:11.742Z,101825.91
2022-09-23T01:36:42.959Z,101809.88
2022-09-23T01:39:14.313Z,101820.13
2022-09-23T01:41:51.695Z,101804.19
2022-09-23T01:44:22.314Z,101823.00
2022-09-23T01:46:54.627Z,101811.50
2022-09-23T01:49:26.651Z,101796.13
2022-09-23T01:51:59.344Z,101813.94
2022-09-23T01:54:31.739Z,101804.41
2022-09-23T01:57:04.397Z,101803.69
2022-09-23T01:59:35.872Z,101799.34
2022-09-23T02:02:09.103Z,101795.13
2022-09-23T02:04:40.221Z,101800.44
2022-09-23T02:07:15.287Z,101791.97
2022-09-23T02:09:46.103Z,101784.47
2022-09-23T02:12:20.294Z,101788.38
2022-09-23T02:14:50.727Z,101781.75
2022-09-23T02:17:25.071Z,101783.69
2022-09-23T02:19:57.055Z,101779.44
2022-09-23T02:22:28.901Z,101783.22
2022-09-23T02:24:56.642Z,101778.06
2022-09-23T02:27:29.687Z,101771.34
2022-09-23T02:30:03.610Z,101766.88
2022-09-23T02:32:36.349Z,101763.59
2022-09-23T02:35:15.658Z,101759.44
2022-09-23T02:37:46.953Z,101763.81
2022-09-23T02:40:19.238Z,101756.44
2022-09-23T02:42:57.011Z,101758.06
2022-09-23T02:45:24.120Z,101742.44
2022-09-23T02:47:57.213Z,101755.56
2022-09-23T02:50:24.311Z,101756.63
2022-09-23T02:52:51.551Z,101754.13
2022-09-23T02:55:23.645Z,101750.56
2022-09-23T02:57:50.742Z,101745.94
2022-09-23T03:00:17.892Z,101753.84
2022-09-23T03:03:19.419Z,101738.06
2022-09-23T03:05:53.056Z,101742.75
2022-09-23T03:08:32.504Z,101737.28
2022-09-23T03:11:05.307Z,101730.69
2022-09-23T03:13:42.657Z,101736.72
2022-09-23T03:16:17.012Z,101730.28
2022-09-23T03:18:51.428Z,101737.38
2022-09-23T03:21:25.235Z,101719.22
2022-09-23T03:23:54.443Z,101729.84
2022-09-23T03:26:25.598Z,101715.91
2022-09-23T03:28:53.061Z,101712.34
2022-09-23T03:31:20.371Z,101716.72
2022-09-23T03:33:52.675Z,101719.44
2022-09-23T03:36:44.509Z,101721.06
2022-09-23T03:39:17.796Z,101720.63
2022-09-23T03:41:50.968Z,101723.88
2022-09-23T03:44:18.330Z,101720.91
2022-09-23T03:46:50.021Z,101711.88
2022-09-23T03:49:24.345Z,101712.63
2022-09-23T03:51:51.128Z,101703.03
2022-09-23T03:54:19.706Z,101696.25
2022-09-23T03:56:49.825Z,101707.00
2022-09-23T03:59:16.885Z,101707.81
2022-09-23T04:01:44.158Z,101701.25
2022-09-23T04:04:10.967Z,101701.84
2022-09-23T04:06:39.026Z,101702.31
2022-09-23T04:09:06.037Z,101694.78
2022-09-23T04:11:32.788Z,101692.59
2022-09-23T04:13:59.544Z,101692.59
2022-09-23T04:16:26.617Z,101701.16
2022-09-23T04:18:53.569Z,101691.56
2022-09-23T04:21:20.408Z,101688.28
2022-09-23T04:23:48.777Z,101687.44
2022-09-23T04:26:15.592Z,101676.19
2022-09-23T04:28:42.603Z,101673.25
2022-09-23T04:31:10.008Z,101681.81
2022-09-23T04:33:37.695Z,101683.63
2022-09-23T04:36:04.944Z,101685.09
2022-09-23T04:38:31.870Z,101678.59
2022-09-23T04:40:59.988Z,101687.34
2022-09-23T04:43:26.945Z,101676.47
2022-09-23T04:46:00.693Z,101683.41
2022-09-23T04:48:28.002Z,101674.94
2022-09-23T04:50:55.290Z,101680.09
2022-09-23T04:53:22.607Z,101686.59
2022-09-23T04:55:50.303Z,101674.50
2022-09-23T04:58:18.390Z,101673.81
2022-09-23T05:00:45.224Z,101677.41
2022-09-23T05:03:13.764Z,101676.47
2022-09-23T05:05:40.567Z,101667.38
2022-09-23T05:08:07.299Z,101681.28
2022-09-23T05:10:34.116Z,101677.19
2022-09-23T05:13:01.200Z,101683.25
2022-09-23T05:15:29.347Z,101686.03
2022-09-23T05:17:57.633Z,101682.50
2022-09-23T05:20:24.423Z,101675.47
2022-09-23T05:22:55.768Z,101674.44
2022-09-23T05:25:23.900Z,101675.13
2022-09-23T05:27:50.683Z,101675.13
2022-09-23T05:30:17.662Z,101673.25
2022-09-23T05:32:45.876Z,101670.59
2022-09-23T05:35:12.830Z,101669.47
2022-09-23T05:37:39.604Z,101669.47
2022-09-23T05:40:06.758Z,101676.34
2022-09-23T05:42:33.775Z,101679.78
2022-09-23T05:45:00.547Z,101684.94
2022-09-23T05:47:27.292Z,101672.56
2022-09-23T05:49:59.920Z,101681.13
2022-09-23T05:52:27.250Z,101681.94
2022-09-23T05:54:54.252Z,101668.97
2022-09-23T05:57:21.582Z,101678.16
2022-09-23T05:59:48.552Z,101685.09
2022-09-23T06:02:15.465Z,101680.47
2022-09-23T06:04:43.134Z,101675.00
2022-09-23T06:07:11.503Z,101679.28
2022-09-23T06:09:38.330Z,101684.38
2022-09-23T06:12:06.425Z,101682.09
2022-09-23T06:14:33.269Z,101671.66
2022-09-23T06:17:00.030Z,101691.28
2022-09-23T06:19:26.853Z,101684.75
2022-09-23T06:21:53.682Z,101678.22
2022-09-23T06:24:26.001Z,101678.72
2022-09-23T06:26:55.871Z,101680.75
2022-09-23T06:29:22.602Z,101676.59
2022-09-23T06:31:49.829Z,101679.88
2022-09-23T06:34:16.882Z,101686.31
2022-09-23T06:36:46.178Z,101680.19
2022-09-23T06:39:13.966Z,101678.31
2022-09-23T06:41:42.393Z,101689.16
2022-09-23T06:44:12.404Z,101677.53
2022-09-23T06:46:39.205Z,101676.41
2022-09-23T06:49:05.985Z,101674.72
2022-09-23T06:51:32.697Z,101678.13
2022-09-23T06:53:59.456Z,101672.63
2022-09-23T06:56:26.286Z,101674.84
2022-09-23T06:58:54.871Z,101673.78
2022-09-23T07:01:22.386Z,101680.06
2022-09-23T07:03:49.246Z,101677.22
2022-09-23T07:06:16.285Z,101672.56
2022-09-23T07:08:44.920Z,101673.06
2022-09-23T07:11:13.393Z,101681.03
2022-09-23T07:13:41.569Z,101674.41
2022-09-23T07:16:11.140Z,101684.69
2022-09-23T07:18:38.293Z,101680.41
2022-09-23T07:21:08.504Z,101681.25
2022-09-23T07:23:35.603Z,101680.69
2022-09-23T07:26:04.060Z,101683.56
2022-09-23T07:28:30.944Z,101676.50
2022-09-23T07:31:02.033Z,101675.38
2022-09-23T07:33:33.299Z,101680.44
2022-09-23T07:36:05.011Z,101681.09
2022-09-23T07:38:31.957Z,101678.22
2022-09-23T07:41:03.255Z,101681.47
2022-09-23T07:43:32.597Z,101684.06
2022-09-23T07:46:00.746Z,101678.34
2022-09-23T07:48:30.740Z,101677.94
2022-09-23T07:51:07.307Z,101675.00
2022-09-23T07:53:34.156Z,101676.50
2022-09-23T07:56:01.138Z,101676.91
2022-09-23T07:58:27.950Z,101678.22
2022-09-23T08:00:54.695Z,101682.41
2022-09-23T08:03:21.668Z,101675.94
2022-09-23T08:05:48.532Z,101681.53
2022-09-23T08:08:17.351Z,101678.13
2022-09-23T08:10:44.224Z,101673.66
2022-09-23T08:13:11.392Z,101680.78
2022-09-23T08:15:38.599Z,101683.81
2022-09-23T08:18:05.617Z,101675.41
2022-09-23T08:20:48.140Z,101676.13
2022-09-23T08:23:17.117Z,101683.19
2022-09-23T08:25:47.106Z,101687.69
2022-09-23T08:28:16.617Z,101685.09
2022-09-23T08:30:43.869Z,101686.81
2022-09-23T08:33:11.196Z,101679.66
2022-09-23T08:35:38.339Z,101685.66
2022-09-23T08:38:05.089Z,101685.25
2022-09-23T08:40:36.480Z,101686.84
2022-09-23T08:43:06.993Z,101678.97
2022-09-23T08:45:36.848Z,101677.53
2022-09-23T08:48:13.006Z,101679.91
2022-09-23T08:50:45.415Z,101674.56
2022-09-23T08:53:25.095Z,101678.34
2022-09-23T08:55:55.697Z,101679.44
2022-09-23T08:58:41.107Z,101678.81
2022-09-23T09:01:18.542Z,101671.31
2022-09-23T09:03:49.570Z,101683.72
2022-09-23T09:06:23.153Z,101678.44
2022-09-23T09:08:55.360Z,101670.63
2022-09-23T09:11:31.379Z,101674.28
2022-09-23T09:14:05.946Z,101676.63
2022-09-23T09:17:01.701Z,101676.53
2022-09-23T09:19:54.079Z,101668.81
2022-09-23T09:22:27.260Z,101670.84
2022-09-23T09:25:01.020Z,101670.94
2022-09-23T09:27:29.410Z,101663.56
2022-09-23T09:30:01.324Z,101666.94
2022-09-23T09:32:38.476Z,101666.63
2022-09-23T09:35:13.008Z,101666.94
2022-09-23T09:37:46.969Z,101668.88
2022-09-23T09:40:17.220Z,101674.56
2022-09-23T09:42:48.816Z,101666.22
2022-09-23T09:45:26.371Z,101671.34
2022-09-23T09:48:03.587Z,101663.00
2022-09-23T09:50:45.664Z,101662.97
2022-09-23T09:53:23.925Z,101669.38
2022-09-23T09:56:04.575Z,101661.63
2022-09-23T09:58:43.826Z,101666.25
2022-09-23T10:01:19.529Z,101658.16
2022-09-23T10:03:46.858Z,101659.75
2022-09-23T10:06:16.567Z,101655.78
2022-09-23T10:08:48.726Z,101663.06
2022-09-23T10:11:17.633Z,101659.00
2022-09-23T10:14:04.934Z,101660.34
2022-09-23T10:16:34.475Z,101660.97
2022-09-23T10:19:03.352Z,101659.63
2022-09-23T10:21:35.534Z,101661.66
2022-09-23T10:24:05.654Z,101661.47
2022-09-23T10:26:38.902Z,101666.09
2022-09-23T10:29:22.982Z,101661.69
2022-09-23T10:31:53.424Z,101655.84
2022-09-23T10:34:25.048Z,101663.84
2022-09-23T10:36:55.571Z,101659.91
2022-09-23T10:39:40.881Z,101663.66
2022-09-23T10:42:37.185Z,101667.81
2022-09-23T10:45:38.594Z,101664.28
2022-09-23T10:48:15.891Z,101665.81
2022-09-23T10:50:48.707Z,101664.72
2022-09-23T10:53:22.935Z,101655.53
2022-09-23T10:56:03.220Z,101652.56
2022-09-23T10:58:58.952Z,101660.44
2022-09-23T11:01:40.655Z,101653.56
2022-09-23T11:04:32.368Z,101653.16
2022-09-23T11:07:11.695Z,101656.13
2022-09-23T11:09:53.160Z,101654.41
2022-09-23T11:12:35.710Z,101653.31
2022-09-23T11:15:27.655Z,101651.22
2022-09-23T11:18:22.897Z,101645.66
2022-09-23T11:20:57.240Z,101647.53
2022-09-23T11:23:55.858Z,101638.34
2022-09-23T11:26:36.744Z,101636.00
2022-09-23T11:29:14.135Z,101636.63
2022-09-23T11:31:49.563Z,101637.06
2022-09-23T11:34:38.847Z,101631.22
2022-09-23T11:37:09.958Z,101622.22
2022-09-23T11:39:42.296Z,101626.91
2022-09-23T11:42:17.896Z,101629.09
2022-09-23T11:44:50.127Z,101622.56
2022-09-23T11:47:22.533Z,101614.00
2022-09-23T11:49:56.214Z,101627.50
2022-09-23T11:52:28.772Z,101616.97
2022-09-23T11:55:01.201Z,101615.91
2022-09-23T11:57:45.542Z,101615.06
2022-09-23T12:00:19.296Z,101615.34
2022-09-23T12:03:05.496Z,101607.94
2022-09-23T12:05:39.967Z,101598.44
2022-09-23T12:08:14.080Z,101597.38
2022-09-23T12:10:51.791Z,101600.69
2022-09-23T12:13:23.796Z,101584.28
2022-09-23T12:16:16.168Z,101589.47
2022-09-23T12:18:53.126Z,101598.59
2022-09-23T12:21:53.321Z,101592.88
2022-09-23T12:24:34.332Z,101584.47
2022-09-23T12:27:06.985Z,101582.66
2022-09-23T12:29:35.700Z,101593.00
2022-09-23T12:32:07.489Z,101591.31
2022-09-23T12:34:40.545Z,101597.28
2022-09-23T12:37:08.958Z,101590.84
2022-09-23T12:39:38.859Z,101591.69
2022-09-23T12:42:12.506Z,101581.94
2022-09-23T12:44:41.880Z,101586.34
2022-09-23T12:47:29.822Z,101583.16
2022-09-23T12:49:56.698Z,101583.00
2022-09-23T12:52:28.674Z,101582.41
2022-09-23T12:54:57.125Z,101588.25
2022-09-23T12:57:42.747Z,101575.06
2022-09-23T13:00:23.762Z,101581.06
2022-09-23T13:03:14.040Z,101569.34
2022-09-23T13:06:04.430Z,101568.13
2022-09-23T13:08:36.002Z,101564.06
2022-09-23T13:11:05.911Z,101555.06
2022-09-23T13:13:36.476Z,101558.25
2022-09-23T13:16:12.271Z,101556.19
2022-09-23T13:18:57.904Z,101559.63
2022-09-23T13:22:09.798Z,101553.50
2022-09-23T13:24:41.477Z,101555.31
2022-09-23T13:27:26.862Z,101549.09
2022-09-23T13:29:59.260Z,101549.94
2022-09-23T13:32:31.878Z,101547.38
2022-09-23T13:35:01.608Z,101542.25
2022-09-23T13:37:40.409Z,101538.72
2022-09-23T13:40:16.621Z,101538.50
2022-09-23T13:42:47.464Z,101530.81
2022-09-23T13:45:17.032Z,101528.63
2022-09-23T13:47:45.555Z,101529.34
2022-09-23T13:50:18.269Z,101523.28
2022-09-23T13:52:45.691Z,101518.25
2022-09-23T13:55:32.381Z,101529.47
2022-09-23T13:58:02.366Z,101525.31
2022-09-23T14:00:35.578Z,101523.38
2022-09-23T14:03:03.324Z,101524.59
2022-09-23T14:05:34.793Z,101530.69
2022-09-23T14:08:03.279Z,101524.84
2022-09-23T14:10:31.465Z,101524.47
2022-09-23T14:12:59.460Z,101519.84
2022-09-23T14:15:26.685Z,101521.41
2022-09-23T14:17:59.117Z,101518.03
2022-09-23T14:20:26.056Z,101517.28
2022-09-23T14:23:07.716Z,101511.22
2022-09-23T14:25:36.300Z,101494.97
2022-09-23T14:28:04.121Z,101513.91
2022-09-23T14:30:31.520Z,101508.75
2022-09-23T14:32:59.243Z,101505.56
2022-09-23T14:35:38.342Z,101505.94
2022-09-23T14:38:24.187Z,101505.56
2022-09-23T14:41:14.371Z,101511.81
2022-09-23T14:43:47.567Z,101506.69
2022-09-23T14:46:18.271Z,101495.00
2022-09-23T14:48:54.301Z,101500.47
2022-09-23T14:51:22.738Z,101499.25
2022-09-23T14:53:49.630Z,101498.03
2022-09-23T14:56:20.439Z,101488.75
2022-09-23T14:58:52.700Z,101492.41
2022-09-23T15:01:40.800Z,101487.56
2022-09-23T15:04:27.903Z,101479.00
2022-09-23T15:06:57.042Z,101490.25
2022-09-23T15:09:27.317Z,101485.34
2022-09-23T15:12:00.681Z,101481.09
2022-09-23T15:14:38.855Z,101485.84
2022-09-23T15:17:16.869Z,101477.31
2022-09-23T15:19:44.215Z,101483.19
2022-09-23T15:22:11.344Z,101490.75
2022-09-23T15:24:42.308Z,101483.06
2022-09-23T15:27:27.585Z,101476.13
2022-09-23T15:29:56.322Z,101482.94
2022-09-23T15:32:23.440Z,101488.31
2022-09-23T15:34:50.995Z,101489.03
2022-09-23T15:37:17.858Z,101480.53
2022-09-23T15:39:44.753Z,101497.34
2022-09-23T15:42:11.902Z,101488.41
2022-09-23T15:44:40.248Z,101491.09
2022-09-23T15:47:15.445Z,101487.06
2022-09-23T15:49:47.272Z,101484.38
2022-09-23T15:52:16.065Z,101475.72
2022-09-23T15:54:43.854Z,101473.28
2022-09-23T15:57:11.322Z,101478.78
2022-09-23T15:59:38.230Z,101472.91
2022-09-23T16:02:18.159Z,101473.03
2022-09-23T16:04:51.007Z,101466.81
2022-09-23T16:07:19.753Z,101467.69
2022-09-23T16:09:46.674Z,101462.56
2022-09-23T16:12:13.796Z,101457.06
2022-09-23T16:14:40.512Z,101459.75
2022-09-23T16:17:13.447Z,101460.75
2022-09-23T16:19:40.227Z,101454.59
2022-09-23T16:22:07.290Z,101452.16
2022-09-23T16:24:34.153Z,101454.75
2022-09-23T16:27:05.259Z,101458.06
2022-09-23T16:29:32.106Z,101452.47
2022-09-23T16:32:00.990Z,101449.56
2022-09-23T16:34:29.980Z,101451.47
2022-09-23T16:36:56.822Z,101445.63
2022-09-23T16:39:24.019Z,101437.81
2022-09-23T16:41:50.832Z,101440.75
2022-09-23T16:44:17.571Z,101441.69
2022-09-23T16:46:44.444Z,101432.94
2022-09-23T16:49:14.235Z,101441.22
2022-09-23T16:51:42.475Z,101438.03
2022-09-23T16:54:11.372Z,101445.09
2022-09-23T16:56:44.027Z,101443.13
2022-09-23T16:59:10.960Z,101438.03
2022-09-23T17:01:56.401Z,101439.75
2022-09-23T17:04:23.219Z,101442.53
2022-09-23T17:06:53.020Z,101443.38
2022-09-23T17:09:21.169Z,101454.81
2022-09-23T17:11:58.909Z,101444.56
2022-09-23T17:14:25.880Z,101447.88
2022-09-23T17:16:52.662Z,101456.91
2022-09-23T17:19:19.402Z,101456.03
2022-09-23T17:21:46.549Z,101460.53
2022-09-23T17:24:14.787Z,101465.88
2022-09-23T17:26:41.850Z,101456.28
2022-09-23T17:29:09.854Z,101463.06
2022-09-23T17:31:37.040Z,101457.97
2022-09-23T17:34:03.751Z,101459.69
2022-09-23T17:36:30.839Z,101451.53
2022-09-23T17:38:57.641Z,101443.50
2022-09-23T17:41:25.995Z,101448.72
2022-09-23T17:44:00.757Z,101447.00
2022-09-23T17:46:30.215Z,101449.69
2022-09-23T17:48:57.333Z,101442.53
2022-09-23T17:51:25.311Z,101438.97
2022-09-23T17:53:52.159Z,101442.41
2022-09-23T17:56:20.237Z,101433.63
2022-09-23T17:58:49.811Z,101435.34
2022-09-23T18:01:19.144Z,101442.19
2022-09-23T18:03:47.394Z,101433.91
2022-09-23T18:06:16.101Z,101438.91
2022-09-23T18:08:44.092Z,101432.47
2022-09-23T18:11:15.980Z,101431.72
2022-09-23T18:13:46.685Z,101434.28
2022-09-23T18:16:15.064Z,101436.00
2022-09-23T18:18:43.014Z,101429.78
2022-09-23T18:21:10.469Z,101434.38
2022-09-23T18:23:37.762Z,101434.28
2022-09-23T18:26:04.905Z,101436.97
2022-09-23T18:28:34.880Z,101432.72
2022-09-23T18:31:01.934Z,101440.84
2022-09-23T18:33:30.032Z,101434.78
2022-09-23T18:35:59.165Z,101434.88
2022-09-23T18:38:25.895Z,101429.66
2022-09-23T18:40:56.873Z,101442.41
2022-09-23T18:43:25.810Z,101430.47
2022-09-23T18:45:57.432Z,101421.25
2022-09-23T18:48:43.143Z,101432.91
2022-09-23T18:51:13.190Z,101427.78
2022-09-23T18:53:41.295Z,101427.78
2022-09-23T18:56:09.403Z,101432.44
2022-09-23T18:58:36.321Z,101429.13
2022-09-23T19:01:06.156Z,101433.63
2022-09-23T19:03:33.128Z,101434.72
2022-09-23T19:06:05.427Z,101428.75
2022-09-23T19:08:34.439Z,101431.66
2022-09-23T19:11:03.606Z,101426.63
2022-09-23T19:13:30.697Z,101424.31
2022-09-23T19:16:02.132Z,101424.53
2022-09-23T19:18:29.958Z,101424.53
2022-09-23T19:21:02.549Z,101420.91
2022-09-23T19:23:37.567Z,101417.50
2022-09-23T19:26:06.588Z,101417.75
2022-09-23T19:28:33.667Z,101423.19
2022-09-23T19:31:09.904Z,101419.16
2022-09-23T19:33:37.802Z,101418.63
2022-09-23T19:36:04.966Z,101426.91
2022-09-23T19:38:31.703Z,101417.19
2022-09-23T19:41:03.158Z,101408.00
2022-09-23T19:43:29.842Z,101415.72
2022-09-23T19:45:56.690Z,101419.34
2022-09-23T19:48:23.429Z,101412.50
2022-09-23T19:50:50.401Z,101426.63
2022-09-23T19:53:17.336Z,101415.81
2022-09-23T19:55:44.379Z,101422.97
2022-09-23T19:58:14.324Z,101415.06
2022-09-23T20:00:41.344Z,101419.56
2022-09-23T20:03:09.034Z,101417.63
2022-09-23T20:05:36.072Z,101409.81
2022-09-23T20:08:05.173Z,101420.53
2022-09-23T20:10:32.398Z,101419.91
2022-09-23T20:12:59.710Z,101424.28
2022-09-23T20:15:29.087Z,101420.66
2022-09-23T20:17:56.612Z,101416.16
2022-09-23T20:20:23.364Z,101419.56
2022-09-23T20:22:52.151Z,101423.19
2022-09-23T20:25:18.961Z,101423.19
2022-09-23T20:27:49.552Z,101419.81
2022-09-23T20:30:17.073Z,101415.19
2022-09-23T20:32:45.328Z,101413.38
2022-09-23T20:35:12.399Z,101419.81
2022-09-23T20:37:39.175Z,101419.81
2022-09-23T20:40:07.012Z,101414.44
2022-09-23T20:42:33.971Z,101410.19
2022-09-23T20:45:00.839Z,101408.47
2022-09-23T20:47:27.598Z,101411.06
2022-09-23T20:49:56.154Z,101402.19
2022-09-23T20:52:22.915Z,101400.47
2022-09-23T20:54:51.618Z,101395.34
2022-09-23T20:57:20.316Z,101405.94
2022-09-23T20:59:47.897Z,101393.53
2022-09-23T21:02:15.366Z,101391.09
2022-09-23T21:04:42.385Z,101397.38
2022-09-23T21:07:10.643Z,101387.03
2022-09-23T21:09:37.511Z,101390.78
2022-09-23T21:12:04.556Z,101388.34
2022-09-23T21:14:31.448Z,101385.91
2022-09-23T21:16:59.300Z,101386.66
2022-09-23T21:19:28.007Z,101391.88
2022-09-23T21:21:55.130Z,101386.03
2022-09-23T21:27:10.194Z,101392.31
2022-09-23T21:29:37.932Z,101391.47
2022-09-23T21:32:04.993Z,101390.75
2022-09-23T21:34:32.146Z,101386.03
2022-09-23T21:36:58.948Z,101389.75
2022-09-23T21:39:27.070Z,101390.75
2022-09-23T21:41:54.209Z,101386.13
2022-09-23T21:44:21.042Z,101391.47
2022-09-23T21:46:47.810Z,101387.22
2022-09-23T21:49:15.531Z,101379.94
2022-09-23T21:51:42.357Z,101376.63
2022-09-23T21:54:12.623Z,101372.03
2022-09-23T21:56:40.814Z,101373.00
2022-09-23T21:59:08.147Z,101373.09
2022-09-23T22:01:36.599Z,101375.03
2022-09-23T22:04:08.777Z,101369.69
2022-09-23T22:06:38.196Z,101371.63
2022-09-23T22:09:10.952Z,101366.28
2022-09-23T22:12:00.045Z,101365.44
2022-09-23T22:14:27.260Z,101371.00
2022-09-23T22:16:59.195Z,101365.03
2022-09-23T22:19:28.120Z,101365.94
2022-09-23T22:21:56.220Z,101375.91
2022-09-23T22:24:23.226Z,101372.59
2022-09-23T22:26:51.473Z,101361.19
2022-09-23T22:29:36.689Z,101363.09
2022-09-23T22:32:23.886Z,101372.84
2022-09-23T22:34:52.121Z,101371.13
2022-09-23T22:37:21.195Z,101363.88
2022-09-23T22:39:47.962Z,101367.03
2022-09-23T22:42:16.328Z,101365.31
2022-09-23T22:44:43.131Z,101365.31
2022-09-23T22:47:10.577Z,101373.25
2022-09-23T22:49:37.482Z,101371.53
2022-09-23T22:52:07.986Z,101364.38
2022-09-23T22:54:35.607Z,101372.91
2022-09-23T22:57:05.232Z,101368.56
2022-09-23T22:59:33.777Z,101365.88
2022-09-23T23:02:02.439Z,101346.84
2022-09-23T23:04:29.945Z,101352.81
2022-09-23T23:06:57.206Z,101361.56
2022-09-23T23:09:24.060Z,101360.75
2022-09-23T23:11:51.157Z,101358.16
2022-09-23T23:14:18.547Z,101352.19
2022-09-23T23:16:47.104Z,101350.06
2022-09-23T23:19:17.239Z,101347.25
2022-09-23T23:21:45.417Z,101348.13
2022-09-23T23:24:15.537Z,101346.19
2022-09-23T23:26:42.629Z,101342.78
2022-09-23T23:29:11.512Z,101343.66
2022-09-23T23:31:39.112Z,101346.38
2022-09-23T23:34:11.100Z,101343.00
2022-09-23T23:36:38.548Z,101342.25
2022-09-23T23:39:05.516Z,101340.53
2022-09-23T23:41:32.295Z,101340.41
2022-09-23T23:44:01.039Z,101343.84
2022-09-23T23:46:30.393Z,101345.53
2022-09-23T23:48:58.178Z,101343.00
2022-09-23T23:51:27.638Z,101343.72
2022-09-23T23:53:56.030Z,101337.75
2022-09-23T23:56:24.633Z,101339.59
2022-09-23T23:58:54.148Z,101338.97
